createdAt,value
2022-10-13T00:03:09.658Z,1006.38
2022-10-13T00:32:20.154Z,1006.27
2022-10-13T01:01:07.374Z,1006.1
2022-10-13T01:30:07.136Z,1006.03
2022-10-13T01:59:12.628Z,1006.14
2022-10-13T02:28:17.434Z,1006.29
2022-10-13T02:57:20.347Z,1005.97
2022-10-13T03:26:31.284Z,1005.88
2022-10-13T03:55:44.901Z,1005.96
2022-10-13T04:24:50.686Z,1005.64
2022-10-13T04:53:57.443Z,1005.37
2022-10-13T05:23:06.406Z,1005.29
2022-10-13T05:52:20.161Z,1005.34
2022-10-13T06:21:10.490Z,1005.33
2022-10-13T06:50:21.193Z,1005.4
2022-10-13T07:19:34.427Z,1005.4
2022-10-13T07:48:44.429Z,1005.15
2022-10-13T08:17:50.875Z,1005.19
2022-10-13T08:47:04.884Z,1004.95
2022-10-13T09:16:14.346Z,1004.83
2022-10-13T09:45:28.603Z,1004.81
2022-10-13T10:14:35.609Z,1004.84
2022-10-13T10:43:46.145Z,1004.51
2022-10-13T11:13:01.059Z,1004.07
2022-10-13T11:42:12.692Z,1003.82
2022-10-13T12:11:18.094Z,1003.41
2022-10-13T12:40:29.330Z,1003.12
2022-10-13T13:09:36.243Z,1003.1
2022-10-13T13:38:39.052Z,1003.08
2022-10-13T14:07:41.319Z,1002.9
2022-10-13T14:36:47.923Z,1002.87
2022-10-13T15:05:58.649Z,1002.89
2022-10-13T15:35:10.452Z,1002.74
2022-10-13T16:04:17.361Z,1002.77
2022-10-13T16:33:20.478Z,1002.7
2022-10-13T17:02:31.531Z,1002.87
2022-10-13T17:31:33.698Z,1003.12
2022-10-13T18:01:12.203Z,1003.08
2022-10-13T18:29:10.378Z,1003.19
2022-10-13T18:58:12.640Z,1003.25
2022-10-13T19:27:21.625Z,1003.34
2022-10-13T19:56:03.675Z,1003.51
2022-10-13T20:25:11.806Z,1003.43
2022-10-13T20:54:24.895Z,1003.31
2022-10-13T21:23:37.125Z,1003.29
2022-10-13T21:52:45.838Z,1003.45
2022-10-13T22:21:55.616Z,1003.44
2022-10-13T22:51:02.600Z,1003.36
2022-10-13T23:20:11.624Z,1003.2
2022-10-13T23:49:17.148Z,1002.96
